sensor_id;sensor_type;location;lat;lon;timestamp;temperature;humidity
64032;DHT22;50278;47.796;11.968;2022-07-23T00:00:30;23.90;118.99
64032;DHT22;50278;47.796;11.968;2022-07-23T00:02:55;23.71;118.99
64032;DHT22;50278;47.796;11.968;2022-07-23T00:05:21;23.46;118.99
64032;DHT22;50278;47.796;11.968;2022-07-23T00:07:47;23.24;118.99
64032;DHT22;50278;47.796;11.968;2022-07-23T00:10:12;23.11;118.99
64032;DHT22;50278;47.796;11.968;2022-07-23T00:12:39;22.95;118.99
64032;DHT22;50278;47.796;11.968;2022-07-23T00:15:05;22.79;118.99
64032;DHT22;50278;47.796;11.968;2022-07-23T00:17:31;22.62;118.99
64032;DHT22;50278;47.796;11.968;2022-07-23T00:19:57;22.37;118.99
64032;DHT22;50278;47.796;11.968;2022-07-23T00:22:23;22.32;118.99
64032;DHT22;50278;47.796;11.968;2022-07-23T00:24:48;22.23;118.99
64032;DHT22;50278;47.796;11.968;2022-07-23T00:27:14;22.18;118.99
64032;DHT22;50278;47.796;11.968;2022-07-23T00:29:40;22.07;118.99
64032;DHT22;50278;47.796;11.968;2022-07-23T00:32:05;21.98;118.99
64032;DHT22;50278;47.796;11.968;2022-07-23T00:34:31;21.99;118.99
64032;DHT22;50278;47.796;11.968;2022-07-23T00:36:56;22.12;118.99
64032;DHT22;50278;47.796;11.968;2022-07-23T00:39:22;22.14;118.99
64032;DHT22;50278;47.796;11.968;2022-07-23T00:41:49;21.95;118.99
64032;DHT22;50278;47.796;11.968;2022-07-23T00:44:24;21.93;118.99
64032;DHT22;50278;47.796;11.968;2022-07-23T00:46:58;22.01;118.99
64032;DHT22;50278;47.796;11.968;2022-07-23T00:49:26;22.39;118.99
64032;DHT22;50278;47.796;11.968;2022-07-23T00:51:52;22.14;118.99
64032;DHT22;50278;47.796;11.968;2022-07-23T00:54:19;21.85;118.99
64032;DHT22;50278;47.796;11.968;2022-07-23T00:56:46;21.78;118.99
64032;DHT22;50278;47.796;11.968;2022-07-23T00:59:12;21.74;118.99
64032;DHT22;50278;47.796;11.968;2022-07-23T01:01:38;21.58;118.99
64032;DHT22;50278;47.796;11.968;2022-07-23T01:04:04;21.49;118.99
64032;DHT22;50278;47.796;11.968;2022-07-23T01:06:34;21.45;118.99
64032;DHT22;50278;47.796;11.968;2022-07-23T01:09:00;21.35;118.99
64032;DHT22;50278;47.796;11.968;2022-07-23T01:11:26;21.35;118.99
64032;DHT22;50278;47.796;11.968;2022-07-23T01:13:52;21.36;118.99
64032;DHT22;50278;47.796;11.968;2022-07-23T01:16:19;21.30;118.99
64032;DHT22;50278;47.796;11.968;2022-07-23T01:18:44;21.21;118.99
64032;DHT22;50278;47.796;11.968;2022-07-23T01:21:11;21.29;118.99
64032;DHT22;50278;47.796;11.968;2022-07-23T01:23:39;21.29;118.99
64032;DHT22;50278;47.796;11.968;2022-07-23T01:26:04;21.29;118.99
64032;DHT22;50278;47.796;11.968;2022-07-23T01:28:30;21.24;118.99
64032;DHT22;50278;47.796;11.968;2022-07-23T01:30:57;21.39;118.99
64032;DHT22;50278;47.796;11.968;2022-07-23T01:33:23;21.37;118.99
64032;DHT22;50278;47.796;11.968;2022-07-23T01:35:49;21.80;118.99
64032;DHT22;50278;47.796;11.968;2022-07-23T01:38:20;22.13;118.99
64032;DHT22;50278;47.796;11.968;2022-07-23T01:40:46;22.17;118.99
64032;DHT22;50278;47.796;11.968;2022-07-23T01:43:11;22.44;118.99
64032;DHT22;50278;47.796;11.968;2022-07-23T01:45:37;22.98;118.99
64032;DHT22;50278;47.796;11.968;2022-07-23T01:48:03;23.26;118.99
64032;DHT22;50278;47.796;11.968;2022-07-23T01:50:30;23.36;118.99
64032;DHT22;50278;47.796;11.968;2022-07-23T01:53:04;23.36;118.99
64032;DHT22;50278;47.796;11.968;2022-07-23T01:55:30;23.25;118.99
64032;DHT22;50278;47.796;11.968;2022-07-23T01:57:56;23.17;118.99
64032;DHT22;50278;47.796;11.968;2022-07-23T02:00:27;23.05;118.99
64032;DHT22;50278;47.796;11.968;2022-07-23T02:02:52;22.97;118.99
64032;DHT22;50278;47.796;11.968;2022-07-23T02:05:18;22.95;118.99
64032;DHT22;50278;47.796;11.968;2022-07-23T02:07:45;22.90;118.99
64032;DHT22;50278;47.796;11.968;2022-07-23T02:10:10;22.84;118.99
64032;DHT22;50278;47.796;11.968;2022-07-23T02:12:37;22.77;118.99
64032;DHT22;50278;47.796;11.968;2022-07-23T02:15:02;22.68;118.99
64032;DHT22;50278;47.796;11.968;2022-07-23T02:17:28;22.71;118.99
64032;DHT22;50278;47.796;11.968;2022-07-23T02:19:53;22.72;118.99
64032;DHT22;50278;47.796;11.968;2022-07-23T02:22:21;22.69;118.99
64032;DHT22;50278;47.796;11.968;2022-07-23T02:24:48;22.67;118.99
64032;DHT22;50278;47.796;11.968;2022-07-23T02:27:14;22.70;118.99
64032;DHT22;50278;47.796;11.968;2022-07-23T02:29:40;22.71;118.99
64032;DHT22;50278;47.796;11.968;2022-07-23T02:32:05;22.68;118.99
64032;DHT22;50278;47.796;11.968;2022-07-23T02:34:31;22.66;118.99
64032;DHT22;50278;47.796;11.968;2022-07-23T02:36:56;22.58;118.99
64032;DHT22;50278;47.796;11.968;2022-07-23T02:39:23;22.68;118.99
64032;DHT22;50278;47.796;11.968;2022-07-23T02:41:49;22.75;118.99
64032;DHT22;50278;47.796;11.968;2022-07-23T02:44:15;22.68;118.99
64032;DHT22;50278;47.796;11.968;2022-07-23T02:46:44;22.67;118.99
64032;DHT22;50278;47.796;11.968;2022-07-23T02:49:09;22.76;118.99
64032;DHT22;50278;47.796;11.968;2022-07-23T02:51:35;22.93;118.99
64032;DHT22;50278;47.796;11.968;2022-07-23T02:54:03;22.82;118.99
64032;DHT22;50278;47.796;11.968;2022-07-23T02:56:29;22.86;118.99
64032;DHT22;50278;47.796;11.968;2022-07-23T02:58:56;22.93;118.99
64032;DHT22;50278;47.796;11.968;2022-07-23T03:01:22;23.07;118.99
64032;DHT22;50278;47.796;11.968;2022-07-23T03:03:47;23.20;118.99
64032;DHT22;50278;47.796;11.968;2022-07-23T03:06:13;23.40;118.99
64032;DHT22;50278;47.796;11.968;2022-07-23T03:08:39;23.42;118.99
64032;DHT22;50278;47.796;11.968;2022-07-23T03:11:05;23.23;118.99
64032;DHT22;50278;47.796;11.968;2022-07-23T03:13:37;23.28;118.99
64032;DHT22;50278;47.796;11.968;2022-07-23T03:16:03;23.20;118.99
64032;DHT22;50278;47.796;11.968;2022-07-23T03:18:29;23.27;118.99
64032;DHT22;50278;47.796;11.968;2022-07-23T03:20:55;23.28;118.99
64032;DHT22;50278;47.796;11.968;2022-07-23T03:23:20;23.22;118.99
64032;DHT22;50278;47.796;11.968;2022-07-23T03:25:47;23.26;118.99
64032;DHT22;50278;47.796;11.968;2022-07-23T03:28:16;23.29;118.99
64032;DHT22;50278;47.796;11.968;2022-07-23T03:30:45;23.41;118.99
64032;DHT22;50278;47.796;11.968;2022-07-23T03:33:15;23.35;118.99
64032;DHT22;50278;47.796;11.968;2022-07-23T03:35:43;23.36;118.99
64032;DHT22;50278;47.796;11.968;2022-07-23T03:38:22;23.30;118.99
64032;DHT22;50278;47.796;11.968;2022-07-23T03:40:47;23.29;118.99
64032;DHT22;50278;47.796;11.968;2022-07-23T03:43:13;23.26;118.99
64032;DHT22;50278;47.796;11.968;2022-07-23T03:45:39;23.22;118.99
64032;DHT22;50278;47.796;11.968;2022-07-23T03:48:04;23.21;118.99
64032;DHT22;50278;47.796;11.968;2022-07-23T03:50:30;23.08;118.99
64032;DHT22;50278;47.796;11.968;2022-07-23T03:52:56;22.99;118.99
64032;DHT22;50278;47.796;11.968;2022-07-23T03:55:21;22.95;118.99
64032;DHT22;50278;47.796;11.968;2022-07-23T03:57:47;22.82;118.99
64032;DHT22;50278;47.796;11.968;2022-07-23T04:00:13;22.60;118.99
64032;DHT22;50278;47.796;11.968;2022-07-23T04:02:40;22.43;118.99
64032;DHT22;50278;47.796;11.968;2022-07-23T04:05:06;22.27;118.99
64032;DHT22;50278;47.796;11.968;2022-07-23T04:07:32;22.04;118.99
64032;DHT22;50278;47.796;11.968;2022-07-23T04:09:58;21.76;118.99
64032;DHT22;50278;47.796;11.968;2022-07-23T04:12:23;21.46;118.99
64032;DHT22;50278;47.796;11.968;2022-07-23T04:14:49;21.31;118.99
64032;DHT22;50278;47.796;11.968;2022-07-23T04:17:15;21.16;118.99
64032;DHT22;50278;47.796;11.968;2022-07-23T04:19:43;20.98;118.99
64032;DHT22;50278;47.796;11.968;2022-07-23T04:22:10;21.03;118.99
64032;DHT22;50278;47.796;11.968;2022-07-23T04:24:37;21.15;118.99
64032;DHT22;50278;47.796;11.968;2022-07-23T04:27:03;21.03;118.99
64032;DHT22;50278;47.796;11.968;2022-07-23T04:29:30;21.17;118.99
64032;DHT22;50278;47.796;11.968;2022-07-23T04:31:55;21.11;118.99
64032;DHT22;50278;47.796;11.968;2022-07-23T04:34:21;21.17;118.99
64032;DHT22;50278;47.796;11.968;2022-07-23T04:36:47;21.03;118.99
64032;DHT22;50278;47.796;11.968;2022-07-23T04:39:13;20.94;118.99
64032;DHT22;50278;47.796;11.968;2022-07-23T04:41:40;20.75;118.99
64032;DHT22;50278;47.796;11.968;2022-07-23T04:44:06;20.57;118.99
64032;DHT22;50278;47.796;11.968;2022-07-23T04:46:31;20.51;118.99
64032;DHT22;50278;47.796;11.968;2022-07-23T04:48:57;20.44;118.99
64032;DHT22;50278;47.796;11.968;2022-07-23T04:51:23;20.36;118.99
64032;DHT22;50278;47.796;11.968;2022-07-23T04:53:49;20.30;118.99
64032;DHT22;50278;47.796;11.968;2022-07-23T04:56:15;20.20;118.99
64032;DHT22;50278;47.796;11.968;2022-07-23T04:58:41;20.10;118.99
64032;DHT22;50278;47.796;11.968;2022-07-23T05:01:06;19.96;118.99
64032;DHT22;50278;47.796;11.968;2022-07-23T05:03:34;19.90;118.99
64032;DHT22;50278;47.796;11.968;2022-07-23T05:06:00;19.84;118.99
64032;DHT22;50278;47.796;11.968;2022-07-23T05:08:26;19.74;118.99
64032;DHT22;50278;47.796;11.968;2022-07-23T05:10:54;19.80;118.99
64032;DHT22;50278;47.796;11.968;2022-07-23T05:13:21;19.81;118.99
64032;DHT22;50278;47.796;11.968;2022-07-23T05:15:49;19.90;118.99
64032;DHT22;50278;47.796;11.968;2022-07-23T05:18:15;19.74;118.99
64032;DHT22;50278;47.796;11.968;2022-07-23T05:20:41;19.73;118.99
64032;DHT22;50278;47.796;11.968;2022-07-23T05:23:07;19.84;118.99
64032;DHT22;50278;47.796;11.968;2022-07-23T05:25:33;19.90;118.99
64032;DHT22;50278;47.796;11.968;2022-07-23T05:27:59;19.94;118.99
64032;DHT22;50278;47.796;11.968;2022-07-23T05:30:25;20.11;118.99
64032;DHT22;50278;47.796;11.968;2022-07-23T05:32:56;20.21;118.99
64032;DHT22;50278;47.796;11.968;2022-07-23T05:35:22;20.28;118.99
64032;DHT22;50278;47.796;11.968;2022-07-23T05:38:02;20.29;118.99
64032;DHT22;50278;47.796;11.968;2022-07-23T05:40:29;20.36;118.99
64032;DHT22;50278;47.796;11.968;2022-07-23T05:42:55;20.37;118.99
64032;DHT22;50278;47.796;11.968;2022-07-23T05:45:21;20.35;118.99
64032;DHT22;50278;47.796;11.968;2022-07-23T05:47:47;20.59;118.99
64032;DHT22;50278;47.796;11.968;2022-07-23T05:50:20;20.45;118.99
64032;DHT22;50278;47.796;11.968;2022-07-23T05:52:52;20.57;118.99
64032;DHT22;50278;47.796;11.968;2022-07-23T05:55:26;20.57;118.99
64032;DHT22;50278;47.796;11.968;2022-07-23T05:57:55;20.78;118.99
64032;DHT22;50278;47.796;11.968;2022-07-23T06:00:21;21.09;118.99
64032;DHT22;50278;47.796;11.968;2022-07-23T06:02:47;21.27;118.99
64032;DHT22;50278;47.796;11.968;2022-07-23T06:05:14;21.45;118.99
64032;DHT22;50278;47.796;11.968;2022-07-23T06:07:40;21.53;118.99
64032;DHT22;50278;47.796;11.968;2022-07-23T06:10:06;21.69;118.99
64032;DHT22;50278;47.796;11.968;2022-07-23T06:12:32;21.90;118.99
64032;DHT22;50278;47.796;11.968;2022-07-23T06:14:58;21.98;118.99
64032;DHT22;50278;47.796;11.968;2022-07-23T06:17:25;22.20;118.99
64032;DHT22;50278;47.796;11.968;2022-07-23T06:19:51;22.32;118.99
64032;DHT22;50278;47.796;11.968;2022-07-23T06:22:16;22.50;118.99
64032;DHT22;50278;47.796;11.968;2022-07-23T06:24:42;22.58;118.99
64032;DHT22;50278;47.796;11.968;2022-07-23T06:27:08;22.34;118.99
64032;DHT22;50278;47.796;11.968;2022-07-23T06:29:34;22.10;118.99
64032;DHT22;50278;47.796;11.968;2022-07-23T06:31:59;21.84;118.99
64032;DHT22;50278;47.796;11.968;2022-07-23T06:34:25;21.55;118.99
64032;DHT22;50278;47.796;11.968;2022-07-23T06:36:50;21.64;118.99
64032;DHT22;50278;47.796;11.968;2022-07-23T06:39:16;21.59;118.99
64032;DHT22;50278;47.796;11.968;2022-07-23T06:41:46;21.53;118.99
64032;DHT22;50278;47.796;11.968;2022-07-23T06:44:12;21.54;118.99
64032;DHT22;50278;47.796;11.968;2022-07-23T06:46:40;21.46;118.99
64032;DHT22;50278;47.796;11.968;2022-07-23T06:49:06;21.39;118.99
64032;DHT22;50278;47.796;11.968;2022-07-23T06:51:32;21.35;118.99
64032;DHT22;50278;47.796;11.968;2022-07-23T06:54:00;21.44;118.99
64032;DHT22;50278;47.796;11.968;2022-07-23T06:56:26;21.40;118.99
64032;DHT22;50278;47.796;11.968;2022-07-23T06:58:53;21.35;118.99
64032;DHT22;50278;47.796;11.968;2022-07-23T07:01:18;21.45;118.99
64032;DHT22;50278;47.796;11.968;2022-07-23T07:03:44;21.33;118.99
64032;DHT22;50278;47.796;11.968;2022-07-23T07:06:10;21.35;118.99
64032;DHT22;50278;47.796;11.968;2022-07-23T07:08:35;21.37;118.99
64032;DHT22;50278;47.796;11.968;2022-07-23T07:11:01;21.49;118.99
64032;DHT22;50278;47.796;11.968;2022-07-23T07:13:26;21.68;118.99
64032;DHT22;50278;47.796;11.968;2022-07-23T07:15:52;21.63;118.99
64032;DHT22;50278;47.796;11.968;2022-07-23T07:18:17;21.73;118.99
64032;DHT22;50278;47.796;11.968;2022-07-23T07:20:43;21.78;118.99
64032;DHT22;50278;47.796;11.968;2022-07-23T07:23:09;21.87;118.99
64032;DHT22;50278;47.796;11.968;2022-07-23T07:25:34;22.12;118.99
64032;DHT22;50278;47.796;11.968;2022-07-23T07:28:00;22.27;118.99
64032;DHT22;50278;47.796;11.968;2022-07-23T07:30:25;22.46;118.99
64032;DHT22;50278;47.796;11.968;2022-07-23T07:32:51;22.39;118.99
64032;DHT22;50278;47.796;11.968;2022-07-23T07:35:16;22.44;118.99
64032;DHT22;50278;47.796;11.968;2022-07-23T07:37:42;22.41;118.99
64032;DHT22;50278;47.796;11.968;2022-07-23T07:40:08;22.27;118.99
64032;DHT22;50278;47.796;11.968;2022-07-23T07:42:34;22.36;118.99
64032;DHT22;50278;47.796;11.968;2022-07-23T07:45:00;22.43;118.99
64032;DHT22;50278;47.796;11.968;2022-07-23T07:47:25;22.56;118.99
64032;DHT22;50278;47.796;11.968;2022-07-23T07:49:51;22.60;118.99
64032;DHT22;50278;47.796;11.968;2022-07-23T07:52:17;22.54;118.99
64032;DHT22;50278;47.796;11.968;2022-07-23T07:54:42;22.71;118.99
64032;DHT22;50278;47.796;11.968;2022-07-23T07:57:08;22.73;118.99
64032;DHT22;50278;47.796;11.968;2022-07-23T07:59:34;22.80;118.99
64032;DHT22;50278;47.796;11.968;2022-07-23T08:01:59;22.91;118.99
64032;DHT22;50278;47.796;11.968;2022-07-23T08:04:25;23.05;118.99
64032;DHT22;50278;47.796;11.968;2022-07-23T08:06:50;23.08;118.99
64032;DHT22;50278;47.796;11.968;2022-07-23T08:09:16;23.14;118.99
64032;DHT22;50278;47.796;11.968;2022-07-23T08:11:41;22.90;118.99
64032;DHT22;50278;47.796;11.968;2022-07-23T08:14:07;22.84;118.99
64032;DHT22;50278;47.796;11.968;2022-07-23T08:16:32;22.76;118.99
64032;DHT22;50278;47.796;11.968;2022-07-23T08:18:58;22.68;118.99
64032;DHT22;50278;47.796;11.968;2022-07-23T08:21:23;22.67;118.99
64032;DHT22;50278;47.796;11.968;2022-07-23T08:23:49;22.68;118.99
64032;DHT22;50278;47.796;11.968;2022-07-23T08:26:14;22.65;118.99
64032;DHT22;50278;47.796;11.968;2022-07-23T08:28:40;22.78;118.99
64032;DHT22;50278;47.796;11.968;2022-07-23T08:31:05;22.99;118.99
64032;DHT22;50278;47.796;11.968;2022-07-23T08:33:31;23.13;118.99
64032;DHT22;50278;47.796;11.968;2022-07-23T08:35:58;23.32;118.99
64032;DHT22;50278;47.796;11.968;2022-07-23T08:38:24;23.38;118.99
64032;DHT22;50278;47.796;11.968;2022-07-23T08:40:55;23.29;118.99
64032;DHT22;50278;47.796;11.968;2022-07-23T08:43:24;23.21;118.99
64032;DHT22;50278;47.796;11.968;2022-07-23T08:45:52;23.49;118.99
64032;DHT22;50278;47.796;11.968;2022-07-23T08:48:24;23.68;118.99
64032;DHT22;50278;47.796;11.968;2022-07-23T08:50:54;23.82;118.99
64032;DHT22;50278;47.796;11.968;2022-07-23T08:53:21;23.94;118.99
64032;DHT22;50278;47.796;11.968;2022-07-23T08:55:49;23.94;118.99
64032;DHT22;50278;47.796;11.968;2022-07-23T08:58:16;24.09;118.99
64032;DHT22;50278;47.796;11.968;2022-07-23T09:00:42;24.30;118.99
64032;DHT22;50278;47.796;11.968;2022-07-23T09:03:15;24.82;118.99
64032;DHT22;50278;47.796;11.968;2022-07-23T09:05:41;24.98;118.99
64032;DHT22;50278;47.796;11.968;2022-07-23T09:08:12;25.23;118.99
64032;DHT22;50278;47.796;11.968;2022-07-23T09:10:58;25.23;118.99
64032;DHT22;50278;47.796;11.968;2022-07-23T09:13:36;25.38;118.99
64032;DHT22;50278;47.796;11.968;2022-07-23T09:16:09;25.01;118.99
64032;DHT22;50278;47.796;11.968;2022-07-23T09:18:54;24.78;118.99
64032;DHT22;50278;47.796;11.968;2022-07-23T09:21:37;24.61;118.99
64032;DHT22;50278;47.796;11.968;2022-07-23T09:24:11;25.04;118.99
64032;DHT22;50278;47.796;11.968;2022-07-23T09:31:42;24.74;118.99
64032;DHT22;50278;47.796;11.968;2022-07-23T09:34:12;24.71;118.99
64032;DHT22;50278;47.796;11.968;2022-07-23T09:36:38;24.88;118.99
64032;DHT22;50278;47.796;11.968;2022-07-23T09:39:04;25.05;118.99
64032;DHT22;50278;47.796;11.968;2022-07-23T09:41:44;24.69;118.99
64032;DHT22;50278;47.796;11.968;2022-07-23T09:44:19;24.48;118.99
64032;DHT22;50278;47.796;11.968;2022-07-23T09:46:48;24.59;118.99
64032;DHT22;50278;47.796;11.968;2022-07-23T09:49:22;24.57;118.99
64032;DHT22;50278;47.796;11.968;2022-07-23T09:51:56;24.44;118.99
64032;DHT22;50278;47.796;11.968;2022-07-23T09:54:29;24.55;118.99
64032;DHT22;50278;47.796;11.968;2022-07-23T09:59:35;24.69;118.99
64032;DHT22;50278;47.796;11.968;2022-07-23T10:02:02;24.73;118.99
64032;DHT22;50278;47.796;11.968;2022-07-23T10:04:32;24.71;118.99
64032;DHT22;50278;47.796;11.968;2022-07-23T10:07:22;25.14;118.99
64032;DHT22;50278;47.796;11.968;2022-07-23T10:09:58;24.99;118.99
64032;DHT22;50278;47.796;11.968;2022-07-23T10:12:34;24.88;118.99
64032;DHT22;50278;47.796;11.968;2022-07-23T10:15:04;25.13;118.99
64032;DHT22;50278;47.796;11.968;2022-07-23T10:17:31;25.33;118.99
64032;DHT22;50278;47.796;11.968;2022-07-23T10:19:57;25.50;118.99
64032;DHT22;50278;47.796;11.968;2022-07-23T10:22:26;24.80;118.99
64032;DHT22;50278;47.796;11.968;2022-07-23T10:25:20;24.77;118.99
64032;DHT22;50278;47.796;11.968;2022-07-23T10:28:04;24.62;118.99
64032;DHT22;50278;47.796;11.968;2022-07-23T10:30:37;24.71;118.99
64032;DHT22;50278;47.796;11.968;2022-07-23T10:33:41;24.68;118.99
64032;DHT22;50278;47.796;11.968;2022-07-23T10:36:40;24.94;118.99
64032;DHT22;50278;47.796;11.968;2022-07-23T10:39:08;25.16;118.99
64032;DHT22;50278;47.796;11.968;2022-07-23T10:41:41;25.29;118.99
64032;DHT22;50278;47.796;11.968;2022-07-23T10:44:14;25.53;118.99
64032;DHT22;50278;47.796;11.968;2022-07-23T10:46:59;26.25;118.99
64032;DHT22;50278;47.796;11.968;2022-07-23T10:49:34;26.46;118.99
64032;DHT22;50278;47.796;11.968;2022-07-23T10:54:41;26.90;118.99
64032;DHT22;50278;47.796;11.968;2022-07-23T10:57:08;26.56;118.99
64032;DHT22;50278;47.796;11.968;2022-07-23T11:02:24;26.90;118.99
64032;DHT22;50278;47.796;11.968;2022-07-23T11:04:52;26.92;118.99
64032;DHT22;50278;47.796;11.968;2022-07-23T11:07:18;26.69;118.99
64032;DHT22;50278;47.796;11.968;2022-07-23T11:09:44;26.64;118.99
64032;DHT22;50278;47.796;11.968;2022-07-23T11:25:04;26.83;118.99
64032;DHT22;50278;47.796;11.968;2022-07-23T11:27:37;27.22;118.99
64032;DHT22;50278;47.796;11.968;2022-07-23T11:30:03;27.37;118.99
64032;DHT22;50278;47.796;11.968;2022-07-23T11:32:31;27.94;118.99
64032;DHT22;50278;47.796;11.968;2022-07-23T11:34:59;27.22;118.99
64032;DHT22;50278;47.796;11.968;2022-07-23T11:37:38;27.43;118.99
64032;DHT22;50278;47.796;11.968;2022-07-23T11:40:11;27.47;118.99
64032;DHT22;50278;47.796;11.968;2022-07-23T11:42:39;27.70;118.99
64032;DHT22;50278;47.796;11.968;2022-07-23T11:45:07;27.79;118.99
64032;DHT22;50278;47.796;11.968;2022-07-23T11:47:33;28.05;118.99
64032;DHT22;50278;47.796;11.968;2022-07-23T11:50:01;27.85;118.99
64032;DHT22;50278;47.796;11.968;2022-07-23T11:52:28;27.37;118.99
64032;DHT22;50278;47.796;11.968;2022-07-23T11:54:56;26.94;118.99
64032;DHT22;50278;47.796;11.968;2022-07-23T11:57:27;26.70;118.99
64032;DHT22;50278;47.796;11.968;2022-07-23T11:59:55;26.52;118.99
64032;DHT22;50278;47.796;11.968;2022-07-23T12:02:21;26.76;118.99
64032;DHT22;50278;47.796;11.968;2022-07-23T12:04:51;26.67;118.99
64032;DHT22;50278;47.796;11.968;2022-07-23T12:07:34;26.65;118.99
64032;DHT22;50278;47.796;11.968;2022-07-23T12:10:10;26.79;118.99
64032;DHT22;50278;47.796;11.968;2022-07-23T12:12:38;27.26;118.99
64032;DHT22;50278;47.796;11.968;2022-07-23T12:15:05;27.85;118.99
64032;DHT22;50278;47.796;11.968;2022-07-23T12:17:33;27.87;118.99
64032;DHT22;50278;47.796;11.968;2022-07-23T12:19:59;27.85;118.99
64032;DHT22;50278;47.796;11.968;2022-07-23T12:22:35;29.00;118.99
64032;DHT22;50278;47.796;11.968;2022-07-23T12:25:10;29.74;118.99
64032;DHT22;50278;47.796;11.968;2022-07-23T12:27:36;31.28;111.50
64032;DHT22;50278;47.796;11.968;2022-07-23T12:30:25;30.61;110.83
64032;DHT22;50278;47.796;11.968;2022-07-23T12:32:54;30.67;115.86
64032;DHT22;50278;47.796;11.968;2022-07-23T12:35:20;30.45;116.72
64032;DHT22;50278;47.796;11.968;2022-07-23T12:37:47;29.79;118.99
64032;DHT22;50278;47.796;11.968;2022-07-23T12:40:25;30.47;118.99
64032;DHT22;50278;47.796;11.968;2022-07-23T12:42:57;31.63;103.35
64032;DHT22;50278;47.796;11.968;2022-07-23T12:45:23;32.09;88.76
64032;DHT22;50278;47.796;11.968;2022-07-23T12:53:18;31.25;110.08
64032;DHT22;50278;47.796;11.968;2022-07-23T12:55:45;30.99;108.80
64032;DHT22;50278;47.796;11.968;2022-07-23T12:58:12;30.94;106.94
64032;DHT22;50278;47.796;11.968;2022-07-23T13:00:51;30.56;111.81
64032;DHT22;50278;47.796;11.968;2022-07-23T13:03:30;29.71;118.99
64032;DHT22;50278;47.796;11.968;2022-07-23T13:05:57;29.87;116.44
64032;DHT22;50278;47.796;11.968;2022-07-23T13:08:24;29.60;118.99
64032;DHT22;50278;47.796;11.968;2022-07-23T13:10:50;29.83;118.99
64032;DHT22;50278;47.796;11.968;2022-07-23T13:13:21;29.63;118.99
64032;DHT22;50278;47.796;11.968;2022-07-23T13:15:47;29.00;118.99
64032;DHT22;50278;47.796;11.968;2022-07-23T13:18:12;29.19;118.99
64032;DHT22;50278;47.796;11.968;2022-07-23T13:20:38;28.57;118.99
64032;DHT22;50278;47.796;11.968;2022-07-23T13:23:07;28.69;118.99
64032;DHT22;50278;47.796;11.968;2022-07-23T13:25:33;28.91;118.99
64032;DHT22;50278;47.796;11.968;2022-07-23T13:27:59;28.82;118.99
64032;DHT22;50278;47.796;11.968;2022-07-23T13:30:25;28.52;118.99
64032;DHT22;50278;47.796;11.968;2022-07-23T13:32:50;29.01;118.99
64032;DHT22;50278;47.796;11.968;2022-07-23T13:35:16;28.46;118.99
64032;DHT22;50278;47.796;11.968;2022-07-23T13:37:41;28.26;118.99
64032;DHT22;50278;47.796;11.968;2022-07-23T13:40:07;28.05;118.99
64032;DHT22;50278;47.796;11.968;2022-07-23T13:42:33;27.56;118.99
64032;DHT22;50278;47.796;11.968;2022-07-23T13:44:59;27.51;118.99
64032;DHT22;50278;47.796;11.968;2022-07-23T13:47:25;27.37;118.99
64032;DHT22;50278;47.796;11.968;2022-07-23T13:49:50;28.08;118.99
64032;DHT22;50278;47.796;11.968;2022-07-23T13:52:16;28.53;118.99
64032;DHT22;50278;47.796;11.968;2022-07-23T13:54:41;29.08;118.99
64032;DHT22;50278;47.796;11.968;2022-07-23T13:57:08;29.44;118.99
64032;DHT22;50278;47.796;11.968;2022-07-23T13:59:35;29.49;118.99
64032;DHT22;50278;47.796;11.968;2022-07-23T14:02:04;30.89;110.39
64032;DHT22;50278;47.796;11.968;2022-07-23T14:04:30;31.23;109.81
64032;DHT22;50278;47.796;11.968;2022-07-23T14:06:55;31.51;101.37
64032;DHT22;50278;47.796;11.968;2022-07-23T14:09:22;31.83;94.75
64032;DHT22;50278;47.796;11.968;2022-07-23T14:11:47;32.52;91.92
64032;DHT22;50278;47.796;11.968;2022-07-23T14:14:13;33.73;81.48
64032;DHT22;50278;47.796;11.968;2022-07-23T14:16:38;33.66;82.20
64032;DHT22;50278;47.796;11.968;2022-07-23T14:19:04;34.31;70.35
64032;DHT22;50278;47.796;11.968;2022-07-23T14:21:30;32.60;85.61
64032;DHT22;50278;47.796;11.968;2022-07-23T14:23:55;31.63;96.62
64032;DHT22;50278;47.796;11.968;2022-07-23T14:26:21;30.70;103.25
64032;DHT22;50278;47.796;11.968;2022-07-23T14:28:46;29.63;117.59
64032;DHT22;50278;47.796;11.968;2022-07-23T14:31:12;29.31;118.99
64032;DHT22;50278;47.796;11.968;2022-07-23T14:33:37;28.59;118.99
64032;DHT22;50278;47.796;11.968;2022-07-23T14:36:03;27.71;118.99
64032;DHT22;50278;47.796;11.968;2022-07-23T14:38:29;27.44;118.99
64032;DHT22;50278;47.796;11.968;2022-07-23T14:40:56;27.88;118.99
64032;DHT22;50278;47.796;11.968;2022-07-23T14:43:22;28.01;118.99
64032;DHT22;50278;47.796;11.968;2022-07-23T14:45:47;27.95;118.99
64032;DHT22;50278;47.796;11.968;2022-07-23T14:48:13;27.74;118.99
64032;DHT22;50278;47.796;11.968;2022-07-23T14:50:38;27.58;118.99
64032;DHT22;50278;47.796;11.968;2022-07-23T14:53:04;27.88;118.99
64032;DHT22;50278;47.796;11.968;2022-07-23T14:55:33;27.82;118.99
64032;DHT22;50278;47.796;11.968;2022-07-23T14:57:59;28.18;118.99
64032;DHT22;50278;47.796;11.968;2022-07-23T15:00:25;28.01;118.99
64032;DHT22;50278;47.796;11.968;2022-07-23T15:02:52;28.28;118.99
64032;DHT22;50278;47.796;11.968;2022-07-23T15:05:17;27.08;118.99
64032;DHT22;50278;47.796;11.968;2022-07-23T15:07:43;26.96;118.99
64032;DHT22;50278;47.796;11.968;2022-07-23T15:10:08;26.55;118.99
64032;DHT22;50278;47.796;11.968;2022-07-23T15:12:34;26.71;118.99
64032;DHT22;50278;47.796;11.968;2022-07-23T15:14:59;26.35;118.99
64032;DHT22;50278;47.796;11.968;2022-07-23T15:17:25;26.22;118.99
64032;DHT22;50278;47.796;11.968;2022-07-23T15:19:51;26.38;118.99
64032;DHT22;50278;47.796;11.968;2022-07-23T15:22:17;26.32;118.99
64032;DHT22;50278;47.796;11.968;2022-07-23T15:24:42;26.36;118.99
64032;DHT22;50278;47.796;11.968;2022-07-23T15:27:08;26.37;118.99
64032;DHT22;50278;47.796;11.968;2022-07-23T15:29:33;26.51;118.99
64032;DHT22;50278;47.796;11.968;2022-07-23T15:31:59;26.28;118.99
64032;DHT22;50278;47.796;11.968;2022-07-23T15:34:26;26.17;118.99
64032;DHT22;50278;47.796;11.968;2022-07-23T15:36:51;26.35;118.99